sensor_id;sensor_type;location;lat;lon;timestamp;pressure;altitude;pressure_sealevel;temperature;humidity
38303;BME280;24103;42.454;27.400;2023-07-09T00:00:12;100723.00;;;19.82;84.37
38303;BME280;24103;42.454;27.400;2023-07-09T00:02:39;100721.16;;;19.82;83.49
38303;BME280;24103;42.454;27.400;2023-07-09T00:05:05;100727.50;;;19.81;83.04
38303;BME280;24103;42.454;27.400;2023-07-09T00:07:32;100721.16;;;19.82;81.96
38303;BME280;24103;42.454;27.400;2023-07-09T00:09:58;100721.56;;;19.87;79.19
38303;BME280;24103;42.454;27.400;2023-07-09T00:15:42;100716.47;;;19.94;77.93
38303;BME280;24103;42.454;27.400;2023-07-09T00:18:09;100718.44;;;19.92;77.69
38303;BME280;24103;42.454;27.400;2023-07-09T00:20:35;100710.97;;;19.96;78.94
38303;BME280;24103;42.454;27.400;2023-07-09T00:23:00;100711.66;;;19.98;79.08
38303;BME280;24103;42.454;27.400;2023-07-09T00:25:30;100714.47;;;19.96;78.45
38303;BME280;24103;42.454;27.400;2023-07-09T00:27:56;100717.03;;;19.88;80.32
38303;BME280;24103;42.454;27.400;2023-07-09T00:30:23;100723.97;;;19.91;80.29
38303;BME280;24103;42.454;27.400;2023-07-09T00:32:51;100723.56;;;19.76;83.63
38303;BME280;24103;42.454;27.400;2023-07-09T00:35:18;100713.13;;;19.53;84.89
38303;BME280;24103;42.454;27.400;2023-07-09T00:37:45;100723.28;;;19.49;85.05
38303;BME280;24103;42.454;27.400;2023-07-09T00:40:19;100717.94;;;19.40;85.74
38303;BME280;24103;42.454;27.400;2023-07-09T00:42:46;100723.03;;;19.33;86.86
38303;BME280;24103;42.454;27.400;2023-07-09T00:45:24;100728.78;;;19.38;86.69
38303;BME280;24103;42.454;27.400;2023-07-09T00:48:03;100729.38;;;19.32;87.12
38303;BME280;24103;42.454;27.400;2023-07-09T00:50:44;100720.47;;;19.22;85.26
38303;BME280;24103;42.454;27.400;2023-07-09T00:53:20;100720.47;;;19.22;88.17
38303;BME280;24103;42.454;27.400;2023-07-09T00:56:00;100725.84;;;19.22;87.04
38303;BME280;24103;42.454;27.400;2023-07-09T00:58:33;100722.88;;;19.25;86.28
38303;BME280;24103;42.454;27.400;2023-07-09T01:01:08;100721.91;;;19.16;85.97
38303;BME280;24103;42.454;27.400;2023-07-09T01:03:45;100730.09;;;19.24;86.78
38303;BME280;24103;42.454;27.400;2023-07-09T01:06:13;100730.63;;;19.08;87.83
38303;BME280;24103;42.454;27.400;2023-07-09T01:08:41;100727.94;;;19.08;87.88
38303;BME280;24103;42.454;27.400;2023-07-09T01:11:20;100728.22;;;19.05;88.95
38303;BME280;24103;42.454;27.400;2023-07-09T01:13:48;100734.72;;;19.03;88.97
38303;BME280;24103;42.454;27.400;2023-07-09T01:16:16;100730.06;;;18.95;87.62
38303;BME280;24103;42.454;27.400;2023-07-09T01:18:42;100728.38;;;19.13;86.12
38303;BME280;24103;42.454;27.400;2023-07-09T01:21:10;100731.47;;;19.19;85.91
38303;BME280;24103;42.454;27.400;2023-07-09T01:23:41;100729.38;;;19.12;85.08
38303;BME280;24103;42.454;27.400;2023-07-09T01:26:10;100732.59;;;19.06;86.61
38303;BME280;24103;42.454;27.400;2023-07-09T01:28:37;100734.88;;;19.11;85.29
38303;BME280;24103;42.454;27.400;2023-07-09T01:31:02;100734.44;;;19.06;84.39
38303;BME280;24103;42.454;27.400;2023-07-09T01:33:29;100736.84;;;18.99;85.39
38303;BME280;24103;42.454;27.400;2023-07-09T01:35:55;100734.28;;;18.98;85.92
38303;BME280;24103;42.454;27.400;2023-07-09T01:38:26;100745.28;;;18.94;86.72
38303;BME280;24103;42.454;27.400;2023-07-09T01:40:56;100736.38;;;18.94;85.47
38303;BME280;24103;42.454;27.400;2023-07-09T01:43:21;100733.88;;;18.92;86.11
38303;BME280;24103;42.454;27.400;2023-07-09T01:45:47;100742.31;;;18.88;86.01
38303;BME280;24103;42.454;27.400;2023-07-09T01:48:15;100737.09;;;18.86;85.95
38303;BME280;24103;42.454;27.400;2023-07-09T01:50:42;100738.34;;;18.92;85.22
38303;BME280;24103;42.454;27.400;2023-07-09T01:53:11;100733.41;;;18.87;85.08
38303;BME280;24103;42.454;27.400;2023-07-09T01:55:37;100735.53;;;18.84;85.25
38303;BME280;24103;42.454;27.400;2023-07-09T01:58:02;100740.81;;;18.74;87.28
38303;BME280;24103;42.454;27.400;2023-07-09T02:00:33;100732.66;;;18.75;85.38
38303;BME280;24103;42.454;27.400;2023-07-09T02:03:00;100732.22;;;18.70;86.02
38303;BME280;24103;42.454;27.400;2023-07-09T02:05:28;100734.03;;;18.60;87.15
38303;BME280;24103;42.454;27.400;2023-07-09T02:07:54;100735.31;;;18.66;85.98
38303;BME280;24103;42.454;27.400;2023-07-09T02:10:20;100741.25;;;18.69;85.67
38303;BME280;24103;42.454;27.400;2023-07-09T02:12:46;100737.41;;;18.62;85.09
38303;BME280;24103;42.454;27.400;2023-07-09T02:15:12;100743.34;;;18.66;86.39
38303;BME280;24103;42.454;27.400;2023-07-09T02:17:38;100747.84;;;18.65;84.49
38303;BME280;24103;42.454;27.400;2023-07-09T02:20:04;100749.41;;;18.68;83.29
38303;BME280;24103;42.454;27.400;2023-07-09T02:22:32;100740.38;;;18.69;81.71
38303;BME280;24103;42.454;27.400;2023-07-09T02:24:58;100752.81;;;18.79;80.11
38303;BME280;24103;42.454;27.400;2023-07-09T02:27:23;100741.84;;;18.83;78.99
38303;BME280;24103;42.454;27.400;2023-07-09T02:29:49;100743.97;;;18.89;77.86
38303;BME280;24103;42.454;27.400;2023-07-09T02:32:21;100745.28;;;18.94;77.06
38303;BME280;24103;42.454;27.400;2023-07-09T02:34:47;100744.13;;;18.97;76.27
38303;BME280;24103;42.454;27.400;2023-07-09T02:37:15;100748.66;;;18.96;78.44
38303;BME280;24103;42.454;27.400;2023-07-09T02:39:43;100749.94;;;18.92;79.68
38303;BME280;24103;42.454;27.400;2023-07-09T02:42:10;100754.03;;;19.06;76.60
38303;BME280;24103;42.454;27.400;2023-07-09T02:44:40;100742.03;;;19.10;74.39
38303;BME280;24103;42.454;27.400;2023-07-09T02:47:06;100754.47;;;19.21;75.38
38303;BME280;24103;42.454;27.400;2023-07-09T02:49:31;100745.47;;;19.22;73.06
38303;BME280;24103;42.454;27.400;2023-07-09T02:51:57;100747.41;;;19.30;73.13
38303;BME280;24103;42.454;27.400;2023-07-09T02:54:22;100745.00;;;19.37;70.40
38303;BME280;24103;42.454;27.400;2023-07-09T02:56:48;100742.47;;;19.45;70.26
38303;BME280;24103;42.454;27.400;2023-07-09T02:59:14;100750.66;;;19.63;68.88
38303;BME280;24103;42.454;27.400;2023-07-09T03:01:39;100747.00;;;19.64;69.36
38303;BME280;24103;42.454;27.400;2023-07-09T03:04:05;100751.78;;;19.70;68.87
38303;BME280;24103;42.454;27.400;2023-07-09T03:06:31;100753.16;;;19.74;68.24
38303;BME280;24103;42.454;27.400;2023-07-09T03:09:00;100746.53;;;19.88;67.24
38303;BME280;24103;42.454;27.400;2023-07-09T03:11:29;100750.75;;;20.48;63.47
38303;BME280;24103;42.454;27.400;2023-07-09T03:13:55;100747.44;;;21.27;58.53
38303;BME280;24103;42.454;27.400;2023-07-09T03:16:21;100737.56;;;22.51;53.57
38303;BME280;24103;42.454;27.400;2023-07-09T03:18:46;100730.28;;;23.02;51.92
38303;BME280;24103;42.454;27.400;2023-07-09T03:21:12;100729.91;;;22.80;50.93
38303;BME280;24103;42.454;27.400;2023-07-09T03:23:37;100729.66;;;22.23;52.55
38303;BME280;24103;42.454;27.400;2023-07-09T03:26:03;100727.66;;;21.72;54.15
38303;BME280;24103;42.454;27.400;2023-07-09T03:28:31;100742.59;;;21.67;54.98
38303;BME280;24103;42.454;27.400;2023-07-09T03:30:57;100737.47;;;21.56;56.08
38303;BME280;24103;42.454;27.400;2023-07-09T03:33:23;100735.25;;;22.03;54.27
38303;BME280;24103;42.454;27.400;2023-07-09T03:35:49;100735.84;;;21.89;53.25
38303;BME280;24103;42.454;27.400;2023-07-09T03:38:15;100733.72;;;23.37;50.27
38303;BME280;24103;42.454;27.400;2023-07-09T03:40:40;100720.19;;;25.13;45.67
38303;BME280;24103;42.454;27.400;2023-07-09T03:43:07;100715.97;;;25.11;44.10
38303;BME280;24103;42.454;27.400;2023-07-09T03:45:34;100703.69;;;25.84;43.25
38303;BME280;24103;42.454;27.400;2023-07-09T03:48:01;100690.59;;;26.99;40.24
38303;BME280;24103;42.454;27.400;2023-07-09T03:50:26;100688.59;;;27.51;39.33
38303;BME280;24103;42.454;27.400;2023-07-09T03:52:52;100680.88;;;28.59;37.17
38303;BME280;24103;42.454;27.400;2023-07-09T03:55:17;100670.94;;;29.67;35.07
38303;BME280;24103;42.454;27.400;2023-07-09T03:57:43;100658.13;;;30.53;33.84
38303;BME280;24103;42.454;27.400;2023-07-09T04:00:09;100654.44;;;30.65;33.23
38303;BME280;24103;42.454;27.400;2023-07-09T04:02:38;100663.38;;;29.15;34.58
38303;BME280;24103;42.454;27.400;2023-07-09T04:05:04;100649.09;;;30.00;33.14
38303;BME280;24103;42.454;27.400;2023-07-09T04:07:30;100645.13;;;31.12;32.38
38303;BME280;24103;42.454;27.400;2023-07-09T04:09:55;100646.97;;;32.24;30.47
38303;BME280;24103;42.454;27.400;2023-07-09T04:12:21;100638.56;;;32.98;29.54
38303;BME280;24103;42.454;27.400;2023-07-09T04:14:51;100635.88;;;33.57;28.89
38303;BME280;24103;42.454;27.400;2023-07-09T04:17:16;100625.41;;;34.18;28.02
38303;BME280;24103;42.454;27.400;2023-07-09T04:19:42;100623.38;;;34.25;27.58
38303;BME280;24103;42.454;27.400;2023-07-09T04:22:10;100620.28;;;34.96;26.36
38303;BME280;24103;42.454;27.400;2023-07-09T04:24:36;100611.63;;;35.38;25.95
38303;BME280;24103;42.454;27.400;2023-07-09T04:27:01;100611.41;;;35.79;25.27
38303;BME280;24103;42.454;27.400;2023-07-09T04:29:31;100607.91;;;36.11;25.05
38303;BME280;24103;42.454;27.400;2023-07-09T04:31:59;100605.09;;;36.55;24.46
38303;BME280;24103;42.454;27.400;2023-07-09T04:34:25;100610.25;;;36.74;24.22
38303;BME280;24103;42.454;27.400;2023-07-09T04:36:50;100599.84;;;36.81;24.03
38303;BME280;24103;42.454;27.400;2023-07-09T04:39:16;100599.25;;;36.74;23.87
38303;BME280;24103;42.454;27.400;2023-07-09T04:41:41;100598.34;;;37.38;23.77
38303;BME280;24103;42.454;27.400;2023-07-09T04:44:06;100598.47;;;37.16;23.40
38303;BME280;24103;42.454;27.400;2023-07-09T04:46:32;100592.03;;;37.05;23.30
38303;BME280;24103;42.454;27.400;2023-07-09T04:48:57;100595.97;;;37.14;23.06
38303;BME280;24103;42.454;27.400;2023-07-09T04:51:23;100598.50;;;36.83;23.19
38303;BME280;24103;42.454;27.400;2023-07-09T04:53:49;100602.22;;;36.99;23.53
38303;BME280;24103;42.454;27.400;2023-07-09T04:56:17;100590.69;;;37.07;23.28
38303;BME280;24103;42.454;27.400;2023-07-09T04:58:43;100586.28;;;37.06;22.86
38303;BME280;24103;42.454;27.400;2023-07-09T05:01:08;100595.28;;;36.97;23.06
38303;BME280;24103;42.454;27.400;2023-07-09T05:03:34;100597.75;;;36.93;22.89
38303;BME280;24103;42.454;27.400;2023-07-09T05:05:59;100602.09;;;36.07;24.31
38303;BME280;24103;42.454;27.400;2023-07-09T05:08:24;100593.34;;;35.10;24.17
38303;BME280;24103;42.454;27.400;2023-07-09T05:10:51;100604.19;;;35.56;24.96
38303;BME280;24103;42.454;27.400;2023-07-09T05:13:18;100582.59;;;36.09;23.82
38303;BME280;24103;42.454;27.400;2023-07-09T05:15:46;100586.22;;;36.14;23.53
38303;BME280;24103;42.454;27.400;2023-07-09T05:18:13;100589.03;;;36.20;23.49
38303;BME280;24103;42.454;27.400;2023-07-09T05:20:40;100586.72;;;35.67;23.90
38303;BME280;24103;42.454;27.400;2023-07-09T05:23:08;100600.16;;;35.81;23.75
38303;BME280;24103;42.454;27.400;2023-07-09T05:25:34;100588.91;;;36.31;23.35
38303;BME280;24103;42.454;27.400;2023-07-09T05:27:59;100577.97;;;36.37;23.59
38303;BME280;24103;42.454;27.400;2023-07-09T05:30:25;100578.97;;;36.58;23.24
38303;BME280;24103;42.454;27.400;2023-07-09T05:32:51;100584.44;;;36.52;24.04
38303;BME280;24103;42.454;27.400;2023-07-09T05:35:19;100573.09;;;37.14;22.32
38303;BME280;24103;42.454;27.400;2023-07-09T05:37:44;100573.22;;;37.29;22.19
38303;BME280;24103;42.454;27.400;2023-07-09T05:40:10;100569.50;;;36.76;23.04
38303;BME280;24103;42.454;27.400;2023-07-09T05:42:36;100571.78;;;36.84;21.95
38303;BME280;24103;42.454;27.400;2023-07-09T05:45:01;100582.59;;;36.63;23.23
38303;BME280;24103;42.454;27.400;2023-07-09T05:47:27;100571.91;;;36.67;21.52
38303;BME280;24103;42.454;27.400;2023-07-09T05:49:53;100568.59;;;36.65;21.93
38303;BME280;24103;42.454;27.400;2023-07-09T05:52:21;100582.94;;;36.99;22.09
38303;BME280;24103;42.454;27.400;2023-07-09T05:54:50;100565.16;;;36.80;22.25
38303;BME280;24103;42.454;27.400;2023-07-09T05:57:16;100560.09;;;36.39;22.63
38303;BME280;24103;42.454;27.400;2023-07-09T05:59:42;100559.69;;;37.22;22.04
38303;BME280;24103;42.454;27.400;2023-07-09T06:02:19;100557.94;;;37.54;21.06
38303;BME280;24103;42.454;27.400;2023-07-09T06:04:44;100565.53;;;36.94;22.06
38303;BME280;24103;42.454;27.400;2023-07-09T06:07:11;100561.00;;;36.77;21.92
38303;BME280;24103;42.454;27.400;2023-07-09T06:09:39;100559.69;;;36.25;22.08
38303;BME280;24103;42.454;27.400;2023-07-09T06:12:05;100567.69;;;36.59;22.74
38303;BME280;24103;42.454;27.400;2023-07-09T06:14:31;100556.81;;;37.60;21.29
38303;BME280;24103;42.454;27.400;2023-07-09T06:16:59;100550.50;;;37.65;20.74
38303;BME280;24103;42.454;27.400;2023-07-09T06:19:25;100563.03;;;36.92;21.34
38303;BME280;24103;42.454;27.400;2023-07-09T06:21:51;100552.66;;;37.04;21.87
38303;BME280;24103;42.454;27.400;2023-07-09T06:24:16;100560.81;;;36.89;21.53
38303;BME280;24103;42.454;27.400;2023-07-09T06:26:42;100556.59;;;37.19;21.37
38303;BME280;24103;42.454;27.400;2023-07-09T06:29:07;100548.13;;;36.56;21.42
38303;BME280;24103;42.454;27.400;2023-07-09T06:31:33;100543.50;;;36.07;21.11
38303;BME280;24103;42.454;27.400;2023-07-09T06:33:58;100549.00;;;36.07;22.30
38303;BME280;24103;42.454;27.400;2023-07-09T06:36:24;100544.25;;;36.51;21.99
38303;BME280;24103;42.454;27.400;2023-07-09T06:38:49;100547.19;;;36.17;21.79
38303;BME280;24103;42.454;27.400;2023-07-09T06:41:15;100547.56;;;35.99;21.75
38303;BME280;24103;42.454;27.400;2023-07-09T06:43:42;100550.25;;;36.43;22.26
38303;BME280;24103;42.454;27.400;2023-07-09T06:46:10;100557.13;;;36.73;20.81
38303;BME280;24103;42.454;27.400;2023-07-09T06:48:36;100539.44;;;37.06;20.86
38303;BME280;24103;42.454;27.400;2023-07-09T06:51:01;100544.59;;;37.40;21.05
38303;BME280;24103;42.454;27.400;2023-07-09T06:53:28;100549.19;;;37.67;20.97
38303;BME280;24103;42.454;27.400;2023-07-09T06:55:54;100552.00;;;37.30;20.65
38303;BME280;24103;42.454;27.400;2023-07-09T06:58:21;100547.78;;;37.17;21.65
38303;BME280;24103;42.454;27.400;2023-07-09T07:00:50;100545.63;;;37.77;20.22
38303;BME280;24103;42.454;27.400;2023-07-09T07:03:16;100539.09;;;38.09;19.87
38303;BME280;24103;42.454;27.400;2023-07-09T07:05:45;100537.41;;;38.08;20.26
38303;BME280;24103;42.454;27.400;2023-07-09T07:08:13;100548.59;;;38.64;19.98
38303;BME280;24103;42.454;27.400;2023-07-09T07:10:40;100552.38;;;38.27;20.23
38303;BME280;24103;42.454;27.400;2023-07-09T07:13:06;100552.31;;;38.02;20.43
38303;BME280;24103;42.454;27.400;2023-07-09T07:15:31;100543.84;;;38.85;18.84
38303;BME280;24103;42.454;27.400;2023-07-09T07:17:57;100553.53;;;38.62;19.66
38303;BME280;24103;42.454;27.400;2023-07-09T07:20:23;100558.50;;;38.86;19.53
38303;BME280;24103;42.454;27.400;2023-07-09T07:22:49;100548.25;;;38.25;19.43
38303;BME280;24103;42.454;27.400;2023-07-09T07:25:15;100544.88;;;38.02;19.29
38303;BME280;24103;42.454;27.400;2023-07-09T07:27:40;100550.47;;;37.54;19.35
38303;BME280;24103;42.454;27.400;2023-07-09T07:30:07;100546.81;;;38.12;19.70
38303;BME280;24103;42.454;27.400;2023-07-09T07:32:38;100543.56;;;38.35;19.11
38303;BME280;24103;42.454;27.400;2023-07-09T07:35:07;100561.97;;;38.04;19.44
38303;BME280;24103;42.454;27.400;2023-07-09T07:37:32;100552.78;;;37.78;19.63
38303;BME280;24103;42.454;27.400;2023-07-09T07:39:58;100544.97;;;37.54;20.70
38303;BME280;24103;42.454;27.400;2023-07-09T07:42:24;100562.97;;;37.67;19.93
38303;BME280;24103;42.454;27.400;2023-07-09T07:44:49;100552.94;;;38.19;19.81
38303;BME280;24103;42.454;27.400;2023-07-09T07:47:15;100545.22;;;38.31;19.61
38303;BME280;24103;42.454;27.400;2023-07-09T07:49:40;100538.16;;;39.62;18.32
38303;BME280;24103;42.454;27.400;2023-07-09T07:52:07;100540.88;;;39.68;18.28
38303;BME280;24103;42.454;27.400;2023-07-09T07:54:32;100543.28;;;38.32;19.02
38303;BME280;24103;42.454;27.400;2023-07-09T07:56:58;100533.91;;;38.74;18.67
38303;BME280;24103;42.454;27.400;2023-07-09T07:59:24;100547.72;;;38.43;19.24
38303;BME280;24103;42.454;27.400;2023-07-09T08:01:49;100529.75;;;38.25;18.81
38303;BME280;24103;42.454;27.400;2023-07-09T08:04:15;100515.88;;;37.89;18.89
38303;BME280;24103;42.454;27.400;2023-07-09T08:06:41;100538.44;;;37.71;19.07
38303;BME280;24103;42.454;27.400;2023-07-09T08:09:06;100531.03;;;37.23;19.65
38303;BME280;24103;42.454;27.400;2023-07-09T08:11:32;100528.38;;;36.31;20.42
38303;BME280;24103;42.454;27.400;2023-07-09T08:13:58;100542.81;;;36.22;21.15
38303;BME280;24103;42.454;27.400;2023-07-09T08:16:23;100528.56;;;35.97;20.68
38303;BME280;24103;42.454;27.400;2023-07-09T08:18:49;100544.69;;;35.67;21.51
38303;BME280;24103;42.454;27.400;2023-07-09T08:21:17;100544.41;;;34.73;22.08
38303;BME280;24103;42.454;27.400;2023-07-09T08:23:42;100545.66;;;34.20;23.13
38303;BME280;24103;42.454;27.400;2023-07-09T08:26:08;100544.22;;;33.88;24.42
38303;BME280;24103;42.454;27.400;2023-07-09T08:28:34;100558.72;;;32.77;24.06
38303;BME280;24103;42.454;27.400;2023-07-09T08:31:00;100549.19;;;32.07;25.10
38303;BME280;24103;42.454;27.400;2023-07-09T08:33:26;100555.78;;;31.26;26.23
38303;BME280;24103;42.454;27.400;2023-07-09T08:35:53;100559.59;;;30.99;26.95
38303;BME280;24103;42.454;27.400;2023-07-09T08:38:19;100554.91;;;30.81;28.30
38303;BME280;24103;42.454;27.400;2023-07-09T08:52:30;100571.22;;;29.79;27.79
38303;BME280;24103;42.454;27.400;2023-07-09T08:55:04;100570.28;;;29.99;27.30
38303;BME280;24103;42.454;27.400;2023-07-09T08:57:35;100559.66;;;29.90;28.58
38303;BME280;24103;42.454;27.400;2023-07-09T09:02:39;100556.84;;;29.38;28.65
38303;BME280;24103;42.454;27.400;2023-07-09T09:05:10;100573.38;;;29.50;29.13
38303;BME280;24103;42.454;27.400;2023-07-09T09:07:43;100575.88;;;29.52;29.05
38303;BME280;24103;42.454;27.400;2023-07-09T09:10:29;100566.41;;;29.61;29.49
38303;BME280;24103;42.454;27.400;2023-07-09T09:13:15;100574.94;;;29.91;28.84
38303;BME280;24103;42.454;27.400;2023-07-09T09:15:46;100583.75;;;29.87;28.90
38303;BME280;24103;42.454;27.400;2023-07-09T09:20:55;100582.22;;;29.98;29.83
38303;BME280;24103;42.454;27.400;2023-07-09T09:23:26;100582.53;;;29.63;28.37
38303;BME280;24103;42.454;27.400;2023-07-09T09:25:57;100571.81;;;29.74;28.77
38303;BME280;24103;42.454;27.400;2023-07-09T09:28:27;100593.38;;;29.89;29.01
38303;BME280;24103;42.454;27.400;2023-07-09T09:30:52;100588.34;;;29.93;29.34
38303;BME280;24103;42.454;27.400;2023-07-09T09:33:18;100583.66;;;30.07;28.18
38303;BME280;24103;42.454;27.400;2023-07-09T09:35:45;100575.34;;;29.95;26.78
38303;BME280;24103;42.454;27.400;2023-07-09T09:38:19;100586.81;;;30.04;27.28
38303;BME280;24103;42.454;27.400;2023-07-09T09:40:45;100579.31;;;29.92;27.02
38303;BME280;24103;42.454;27.400;2023-07-09T09:43:17;100577.22;;;29.94;28.49
38303;BME280;24103;42.454;27.400;2023-07-09T09:45:45;100580.00;;;30.26;28.05
38303;BME280;24103;42.454;27.400;2023-07-09T09:48:14;100578.53;;;30.24;27.38
38303;BME280;24103;42.454;27.400;2023-07-09T09:50:41;100575.94;;;30.42;27.86
38303;BME280;24103;42.454;27.400;2023-07-09T09:53:08;100574.16;;;30.23;27.88
38303;BME280;24103;42.454;27.400;2023-07-09T09:55:34;100575.13;;;30.35;27.42
38303;BME280;24103;42.454;27.400;2023-07-09T09:58:00;100568.69;;;30.29;27.99
38303;BME280;24103;42.454;27.400;2023-07-09T10:00:27;100559.50;;;30.17;27.67
38303;BME280;24103;42.454;27.400;2023-07-09T10:02:58;100576.44;;;30.26;27.90
38303;BME280;24103;42.454;27.400;2023-07-09T10:05:43;100578.00;;;30.08;27.80
38303;BME280;24103;42.454;27.400;2023-07-09T10:13:44;100567.25;;;30.20;28.34
38303;BME280;24103;42.454;27.400;2023-07-09T10:18:56;100563.44;;;30.28;28.49
38303;BME280;24103;42.454;27.400;2023-07-09T10:21:54;100573.44;;;30.41;27.00
38303;BME280;24103;42.454;27.400;2023-07-09T10:24:48;100566.16;;;30.28;27.15
38303;BME280;24103;42.454;27.400;2023-07-09T10:27:22;100557.25;;;30.07;27.33
38303;BME280;24103;42.454;27.400;2023-07-09T10:30:13;100563.63;;;29.88;27.69
38303;BME280;24103;42.454;27.400;2023-07-09T10:40:59;100555.63;;;30.00;27.96
38303;BME280;24103;42.454;27.400;2023-07-09T10:43:49;100565.38;;;30.14;28.27
38303;BME280;24103;42.454;27.400;2023-07-09T10:46:24;100573.44;;;30.34;28.26
38303;BME280;24103;42.454;27.400;2023-07-09T10:48:52;100555.22;;;30.41;28.69
38303;BME280;24103;42.454;27.400;2023-07-09T10:56:28;100559.53;;;30.49;27.88
38303;BME280;24103;42.454;27.400;2023-07-09T11:02:24;100558.84;;;30.60;27.58
38303;BME280;24103;42.454;27.400;2023-07-09T11:04:49;100554.91;;;30.56;27.74
38303;BME280;24103;42.454;27.400;2023-07-09T11:07:32;100563.13;;;30.49;28.71
38303;BME280;24103;42.454;27.400;2023-07-09T11:10:02;100564.94;;;30.62;28.20
38303;BME280;24103;42.454;27.400;2023-07-09T11:12:40;100567.06;;;30.54;28.03
38303;BME280;24103;42.454;27.400;2023-07-09T11:15:16;100560.13;;;30.58;27.86
38303;BME280;24103;42.454;27.400;2023-07-09T11:17:45;100554.78;;;30.69;28.03
38303;BME280;24103;42.454;27.400;2023-07-09T11:20:24;100564.97;;;30.56;27.40
38303;BME280;24103;42.454;27.400;2023-07-09T11:22:53;100559.31;;;30.50;27.92
38303;BME280;24103;42.454;27.400;2023-07-09T11:25:40;100546.66;;;30.63;26.68
38303;BME280;24103;42.454;27.400;2023-07-09T11:28:07;100564.41;;;30.72;28.93
38303;BME280;24103;42.454;27.400;2023-07-09T11:30:54;100559.81;;;30.73;27.52
38303;BME280;24103;42.454;27.400;2023-07-09T11:33:26;100569.34;;;30.57;28.27
38303;BME280;24103;42.454;27.400;2023-07-09T11:36:13;100555.81;;;30.43;27.92
38303;BME280;24103;42.454;27.400;2023-07-09T11:38:45;100557.44;;;30.51;27.87
38303;BME280;24103;42.454;27.400;2023-07-09T11:43:49;100563.03;;;30.63;27.84
38303;BME280;24103;42.454;27.400;2023-07-09T11:46:19;100550.50;;;30.80;27.62
38303;BME280;24103;42.454;27.400;2023-07-09T11:48:48;100557.41;;;31.08;27.32
38303;BME280;24103;42.454;27.400;2023-07-09T11:51:17;100557.25;;;31.03;26.35
38303;BME280;24103;42.454;27.400;2023-07-09T11:53:49;100547.53;;;30.82;27.44
38303;BME280;24103;42.454;27.400;2023-07-09T11:56:20;100541.72;;;30.78;27.35
38303;BME280;24103;42.454;27.400;2023-07-09T11:58:50;100557.09;;;30.98;27.41
38303;BME280;24103;42.454;27.400;2023-07-09T12:01:20;100542.84;;;30.96;26.80
38303;BME280;24103;42.454;27.400;2023-07-09T12:03:46;100544.72;;;30.95;27.03
38303;BME280;24103;42.454;27.400;2023-07-09T12:06:31;100558.72;;;31.05;27.76
38303;BME280;24103;42.454;27.400;2023-07-09T12:08:58;100542.50;;;30.85;27.43
38303;BME280;24103;42.454;27.400;2023-07-09T12:11:27;100534.44;;;30.97;27.32
38303;BME280;24103;42.454;27.400;2023-07-09T12:13:54;100539.25;;;31.02;27.52
38303;BME280;24103;42.454;27.400;2023-07-09T12:16:28;100539.50;;;30.94;27.44
38303;BME280;24103;42.454;27.400;2023-07-09T12:18:53;100544.22;;;31.05;28.11
38303;BME280;24103;42.454;27.400;2023-07-09T12:21:19;100544.56;;;31.15;27.67
38303;BME280;24103;42.454;27.400;2023-07-09T12:23:45;100540.44;;;31.06;27.03
38303;BME280;24103;42.454;27.400;2023-07-09T12:26:13;100532.63;;;31.10;27.46
38303;BME280;24103;42.454;27.400;2023-07-09T12:28:40;100535.50;;;30.96;27.29
38303;BME280;24103;42.454;27.400;2023-07-09T12:31:12;100533.19;;;30.93;27.01
38303;BME280;24103;42.454;27.400;2023-07-09T12:33:47;100532.47;;;30.79;26.89
38303;BME280;24103;42.454;27.400;2023-07-09T12:36:16;100536.69;;;30.75;27.21
38303;BME280;24103;42.454;27.400;2023-07-09T12:38:46;100528.94;;;30.79;27.56
38303;BME280;24103;42.454;27.400;2023-07-09T12:41:28;100536.19;;;30.85;28.00
38303;BME280;24103;42.454;27.400;2023-07-09T12:43:55;100546.00;;;30.93;27.03
38303;BME280;24103;42.454;27.400;2023-07-09T12:46:24;100527.41;;;30.83;27.21
38303;BME280;24103;42.454;27.400;2023-07-09T12:48:50;100522.16;;;30.81;27.54
38303;BME280;24103;42.454;27.400;2023-07-09T12:51:22;100514.31;;;30.92;26.75
38303;BME280;24103;42.454;27.400;2023-07-09T12:54:19;100533.13;;;31.25;28.12
38303;BME280;24103;42.454;27.400;2023-07-09T12:56:46;100522.47;;;31.60;26.32
38303;BME280;24103;42.454;27.400;2023-07-09T12:59:19;100518.03;;;31.59;26.28
38303;BME280;24103;42.454;27.400;2023-07-09T13:01:50;100526.78;;;31.50;26.67
38303;BME280;24103;42.454;27.400;2023-07-09T13:04:16;100513.34;;;31.48;26.99
38303;BME280;24103;42.454;27.400;2023-07-09T13:06:42;100521.19;;;31.63;27.01
38303;BME280;24103;42.454;27.400;2023-07-09T13:09:19;100520.78;;;31.59;27.35
38303;BME280;24103;42.454;27.400;2023-07-09T13:11:46;100524.59;;;31.58;27.04
38303;BME280;24103;42.454;27.400;2023-07-09T13:14:21;100529.06;;;31.71;26.66
38303;BME280;24103;42.454;27.400;2023-07-09T13:16:47;100511.66;;;31.84;26.98
38303;BME280;24103;42.454;27.400;2023-07-09T13:19:13;100518.31;;;31.88;26.41
38303;BME280;24103;42.454;27.400;2023-07-09T13:21:40;100511.38;;;31.74;26.07
38303;BME280;24103;42.454;27.400;2023-07-09T13:24:13;100508.56;;;31.62;27.12
38303;BME280;24103;42.454;27.400;2023-07-09T13:26:39;100514.31;;;31.72;26.49
38303;BME280;24103;42.454;27.400;2023-07-09T13:29:12;100506.44;;;31.46;26.34
38303;BME280;24103;42.454;27.400;2023-07-09T13:31:38;100512.00;;;31.57;26.97
38303;BME280;24103;42.454;27.400;2023-07-09T13:34:29;100520.78;;;31.78;26.49